HOURLY OBS INDEX

062

Central Tablelands - north

MUDGEE AIRPORT AWS

Site: 062101
Alt: 471.0m
4km NE of MUDGEE


  Time     Wind        Temp  DP   Baro     Rain since   Rain past  Vis(m), Cloud(base in m), Weather
  local        km/h                         9am  last   hr   10m    
Thu 18:00   SW 17/ 20  11.0  0.1  1016.1    0.0   0.0   0.0   0.0   10000 
Thu 18:30   SW 17/ 22  10.7  0.2  1016.4    0.0   0.0   0.0   0.0   10000 
Thu 19:00  SSW 13/ 22  10.6  0.3  1016.8    0.0   0.0   0.0   0.0   10000 
Thu 19:30  SSW  7/  9   9.8 -0.1  1017.0    0.0   0.0   0.0   0.0   10000 
Thu 20:00  WSW  2/  7   8.0 -0.5  1017.4    0.0   0.0   0.0   0.0   10000 
Thu 20:30    W  2/  7   7.0  0.0  1017.5    0.0   0.0   0.0   0.0   10000 
Thu 21:00    C  0/  0   6.6  0.3  1017.6    0.0   0.0   0.0   0.0   10000 
Thu 21:30    N  4/ 11   5.2 -0.4  1018.0    0.0   0.0   0.0   0.0   10000 
Thu 22:00    N  9/ 13   2.3 -1.0  1018.2    0.0   0.0   0.0   0.0   10000 
Thu 22:30  NNW  9/ 15   3.6  0.3  1018.2    0.0   0.0   0.0   0.0   10000 
Thu 23:00  NNW 11/ 11   4.2 -0.2  1018.2    0.0   0.0   0.0   0.0   10000 

NULLO MOUNTAIN AWS

Site: 062100
Alt: 1130.0m
62km ESE of MUDGEE


  Time     Wind        Temp  DP   Baro     Rain since   Rain past  Vis(m), Cloud(base in m), Weather
  local        km/h                         9am  last   hr   10m    
Thu 18:00    W 11/ 24   5.9 -1.5  ------    0.0   0.0   0.0   0.0   ----- 
Thu 18:30    W 17/ 26   5.6 -0.9  ------    0.0   0.0   0.0   0.0   ----- 
Thu 19:00    W 13/ 24   5.0 -1.0  ------    0.0   0.0   0.0   0.0   ----- 
Thu 19:30  WSW 13/ 32   4.6 -1.2  ------    0.0   0.0   0.0   0.0   ----- 
Thu 20:00    W 17/ 30   4.4 -1.4  ------    0.0   0.0   0.0   0.0   ----- 
Thu 20:30  WSW 19/ 32   4.2 -1.4  ------    0.0   0.0   0.0   0.0   ----- 
Thu 21:00  WSW 20/ 32   4.5 -1.3  ------    0.0   0.0   0.0   0.0   ----- 
Thu 21:30  WSW 17/ 32   4.1 -1.5  ------    0.0   0.0   0.0   0.0   ----- 
Thu 22:00    W 13/ 24   4.0 -1.4  ------    0.0   0.0   0.0   0.0   ----- 
Thu 22:30    W  7/ 13   3.8 -1.2  ------    0.0   0.0   0.0   0.0   ----- 
Thu 23:00    W 11/ 19   3.9 -0.9  ------    0.0   0.0   0.0   0.0   -----